createdAt,value
2022-09-29T00:00:02.729Z,28.40
2022-09-29T00:02:06.635Z,28.50
2022-09-29T00:04:09.429Z,28.50
2022-09-29T00:06:16.372Z,28.40
2022-09-29T00:08:20.137Z,28.40
2022-09-29T00:10:21.932Z,28.40
2022-09-29T00:12:23.854Z,28.40
2022-09-29T00:14:25.589Z,28.40
2022-09-29T00:16:27.393Z,28.40
2022-09-29T00:18:31.098Z,28.40
2022-09-29T00:20:33.126Z,28.40
2022-09-29T00:22:37.286Z,28.40
2022-09-29T00:24:38.902Z,28.40
2022-09-29T00:26:40.606Z,28.40
2022-09-29T00:28:48.245Z,28.40
2022-09-29T00:30:50.035Z,28.70
2022-09-29T00:32:51.738Z,28.30
2022-09-29T00:34:53.364Z,28.30
2022-09-29T00:36:55.246Z,28.30
2022-09-29T00:38:58.138Z,28.20
2022-09-29T00:41:04.389Z,28.20
2022-09-29T00:43:26.825Z,28.20
2022-09-29T00:45:28.906Z,28.10
2022-09-29T00:47:32.997Z,28.10
2022-09-29T00:49:50.998Z,28.00
2022-09-29T00:51:59.633Z,28.00
2022-09-29T00:54:05.714Z,28.00
2022-09-29T00:56:11.469Z,28.00
2022-09-29T00:58:34.861Z,28.00
2022-09-29T01:00:39.113Z,28.70
2022-09-29T01:03:02.352Z,28.10
2022-09-29T01:05:09.954Z,28.30
2022-09-29T01:07:12.801Z,28.30
2022-09-29T01:09:21.165Z,28.30
2022-09-29T01:11:25.760Z,28.70
2022-09-29T01:13:29.005Z,28.80
2022-09-29T01:15:31.210Z,28.80
2022-09-29T01:17:33.209Z,29.00
2022-09-29T01:19:49.833Z,29.00
2022-09-29T01:22:03.221Z,29.80
2022-09-29T01:24:34.140Z,29.80
2022-09-29T01:26:59.651Z,30.00
2022-09-29T01:29:20.175Z,29.70
2022-09-29T01:31:38.273Z,29.60
2022-09-29T01:33:46.387Z,29.70
2022-09-29T01:36:07.287Z,29.80
2022-09-29T01:38:17.796Z,30.70
2022-09-29T01:40:49.594Z,30.00
2022-09-29T01:43:16.817Z,30.50
2022-09-29T01:45:23.181Z,31.00
2022-09-29T01:47:40.562Z,30.40
2022-09-29T01:49:51.751Z,30.70
2022-09-29T01:51:58.557Z,30.60
2022-09-29T01:54:09.829Z,30.40
2022-09-29T01:56:23.906Z,30.80
2022-09-29T01:58:37.757Z,31.40
2022-09-29T02:00:47.059Z,31.20
2022-09-29T02:03:00.713Z,30.90
2022-09-29T02:05:10.028Z,31.30
2022-09-29T02:07:36.788Z,30.80
2022-09-29T02:09:45.510Z,30.90
2022-09-29T02:11:50.634Z,30.70
2022-09-29T02:14:00.092Z,30.30
2022-09-29T02:16:04.071Z,30.70
2022-09-29T02:18:21.388Z,30.40
2022-09-29T02:20:25.374Z,30.40
2022-09-29T02:22:27.109Z,30.00
2022-09-29T02:24:28.799Z,29.90
2022-09-29T02:26:37.256Z,30.00
2022-09-29T02:28:39.277Z,30.00
2022-09-29T02:30:41.058Z,30.00
2022-09-29T02:32:43.161Z,30.00
2022-09-29T02:34:47.360Z,30.00
2022-09-29T02:37:26.837Z,29.90
2022-09-29T02:39:47.298Z,30.20
2022-09-29T02:42:01.580Z,30.50
2022-09-29T02:44:18.723Z,30.40
2022-09-29T02:46:36.725Z,30.90
2022-09-29T02:49:13.337Z,31.00
2022-09-29T02:51:26.393Z,31.10
2022-09-29T02:53:44.597Z,31.10
2022-09-29T02:56:09.618Z,31.40
2022-09-29T02:58:17.567Z,31.60
2022-09-29T03:00:20.625Z,31.80
2022-09-29T03:02:27.641Z,30.50
2022-09-29T03:04:29.933Z,30.60
2022-09-29T03:06:32.260Z,31.50
2022-09-29T03:08:36.131Z,31.50
2022-09-29T03:10:37.882Z,31.80
2022-09-29T03:12:39.919Z,32.00
2022-09-29T03:14:42.723Z,32.20
2022-09-29T03:16:49.367Z,32.20
2022-09-29T03:18:54.701Z,32.10
2022-09-29T03:20:57.189Z,32.00
2022-09-29T03:22:59.113Z,31.70
2022-09-29T03:25:03.127Z,31.60
2022-09-29T03:27:07.665Z,31.40
2022-09-29T03:29:09.305Z,31.50
2022-09-29T03:31:11.152Z,31.40
2022-09-29T03:33:12.967Z,31.50
2022-09-29T03:35:14.858Z,31.50
2022-09-29T03:37:16.591Z,31.30
2022-09-29T03:39:21.144Z,31.40
2022-09-29T03:41:25.070Z,31.70
2022-09-29T03:43:29.945Z,31.50
2022-09-29T03:45:31.724Z,31.40
2022-09-29T03:47:35.525Z,31.40
2022-09-29T03:49:37.382Z,31.50
2022-09-29T03:51:41.755Z,31.70
2022-09-29T03:53:43.426Z,31.70
2022-09-29T03:55:49.594Z,31.40
2022-09-29T03:57:51.332Z,31.60
2022-09-29T03:59:53.247Z,31.60
2022-09-29T04:01:54.998Z,31.50
2022-09-29T04:04:00.753Z,31.50
2022-09-29T04:06:02.410Z,31.60
2022-09-29T04:08:07.849Z,31.90
2022-09-29T04:10:15.354Z,32.10
2022-09-29T04:12:19.326Z,32.40
2022-09-29T04:14:21.006Z,31.80
2022-09-29T04:16:22.832Z,31.70
2022-09-29T04:18:24.605Z,32.20
2022-09-29T04:20:29.210Z,31.50
2022-09-29T04:22:31.113Z,31.50
2022-09-29T04:24:32.729Z,31.50
2022-09-29T04:26:34.454Z,31.60
2022-09-29T04:28:37.559Z,31.80
2022-09-29T04:30:39.321Z,31.80
2022-09-29T04:32:41.011Z,32.10
2022-09-29T04:34:42.981Z,32.00
2022-09-29T04:36:44.826Z,32.10
2022-09-29T04:38:46.494Z,32.10
2022-09-29T04:40:48.784Z,32.20
2022-09-29T04:42:50.452Z,32.40
2022-09-29T04:44:54.519Z,32.50
2022-09-29T04:46:56.242Z,32.70
2022-09-29T04:48:57.935Z,32.80
2022-09-29T04:51:02.437Z,32.90
2022-09-29T04:53:06.531Z,33.00
2022-09-29T04:55:11.990Z,33.10
2022-09-29T04:57:16.106Z,33.20
2022-09-29T04:59:17.937Z,33.50
2022-09-29T05:01:19.629Z,33.30
2022-09-29T05:03:21.330Z,33.50
2022-09-29T05:05:25.280Z,33.30
2022-09-29T05:07:26.922Z,33.20
2022-09-29T05:09:33.091Z,33.00
2022-09-29T05:11:35.550Z,32.80
2022-09-29T05:13:39.759Z,32.50
2022-09-29T05:15:42.741Z,32.60
2022-09-29T05:17:44.377Z,32.60
2022-09-29T05:19:46.022Z,32.80
2022-09-29T05:21:47.807Z,33.00
2022-09-29T05:23:49.467Z,33.20
2022-09-29T05:25:51.089Z,33.20
2022-09-29T05:27:52.746Z,33.40
2022-09-29T05:29:55.429Z,33.50
2022-09-29T05:31:58.342Z,33.60
2022-09-29T05:34:00.018Z,33.60
2022-09-29T05:36:06.571Z,33.60
2022-09-29T05:38:08.208Z,33.70
2022-09-29T05:40:10.194Z,34.50
2022-09-29T05:42:12.387Z,34.00
2022-09-29T05:44:14.051Z,34.20
2022-09-29T05:46:17.484Z,34.20
2022-09-29T05:48:19.210Z,34.20
2022-09-29T05:50:23.593Z,34.30
2022-09-29T05:52:25.279Z,34.30
2022-09-29T05:54:29.805Z,34.10
2022-09-29T05:56:33.824Z,34.20
2022-09-29T05:58:37.392Z,34.10
2022-09-29T06:00:39.033Z,34.10
2022-09-29T06:02:40.772Z,34.10
2022-09-29T06:04:42.609Z,34.20
2022-09-29T06:06:44.392Z,34.40
2022-09-29T06:08:51.292Z,34.50
2022-09-29T06:10:55.323Z,35.00
2022-09-29T06:12:57.165Z,34.90
2022-09-29T06:15:06.653Z,34.80
2022-09-29T06:17:08.342Z,35.00
2022-09-29T06:19:10.217Z,34.90
2022-09-29T06:21:26.979Z,35.30
2022-09-29T06:23:31.064Z,35.80
2022-09-29T06:25:32.689Z,35.30
2022-09-29T06:27:36.328Z,35.50
2022-09-29T06:29:38.014Z,35.70
2022-09-29T06:31:39.829Z,35.90
2022-09-29T06:33:42.655Z,36.10
2022-09-29T06:36:08.611Z,36.20
2022-09-29T06:38:13.059Z,36.70
2022-09-29T06:40:14.786Z,36.00
2022-09-29T06:42:16.410Z,35.90
2022-09-29T06:44:21.975Z,36.10
2022-09-29T06:46:28.674Z,35.90
2022-09-29T06:48:30.336Z,35.80
2022-09-29T06:50:32.054Z,35.60
2022-09-29T06:52:33.814Z,35.70
2022-09-29T06:54:41.475Z,35.80
2022-09-29T06:56:46.123Z,35.90
2022-09-29T06:58:47.842Z,35.80
2022-09-29T07:00:52.020Z,35.80
2022-09-29T07:02:54.708Z,36.60
2022-09-29T07:04:56.402Z,35.80
2022-09-29T07:06:58.073Z,36.00
2022-09-29T07:09:00.656Z,35.90
2022-09-29T07:11:05.931Z,35.80
2022-09-29T07:13:10.464Z,35.70
2022-09-29T07:15:12.343Z,35.70
2022-09-29T07:17:17.625Z,35.70
2022-09-29T07:19:19.895Z,34.60
2022-09-29T07:21:24.047Z,34.80
2022-09-29T07:23:26.814Z,34.80
2022-09-29T07:25:50.625Z,35.00
2022-09-29T07:27:51.193Z,35.20
2022-09-29T07:30:02.787Z,35.40
2022-09-29T07:32:06.892Z,35.30
2022-09-29T07:34:11.472Z,35.30
2022-09-29T07:36:16.059Z,35.50
2022-09-29T07:38:17.865Z,35.40
2022-09-29T07:40:24.097Z,35.30
2022-09-29T07:42:27.496Z,35.50
2022-09-29T07:44:40.198Z,35.40
2022-09-29T07:46:49.846Z,35.10
2022-09-29T07:48:51.445Z,35.10
2022-09-29T07:50:53.410Z,34.70
2022-09-29T07:52:55.027Z,34.70
2022-09-29T07:54:59.244Z,34.70
2022-09-29T07:57:03.744Z,35.10
2022-09-29T07:59:05.502Z,35.10
2022-09-29T08:01:12.525Z,35.30
2022-09-29T08:03:17.137Z,35.40
2022-09-29T08:05:19.270Z,35.50
2022-09-29T08:07:20.958Z,35.50
2022-09-29T08:09:31.243Z,35.50
2022-09-29T08:11:38.556Z,35.80
2022-09-29T08:13:40.573Z,35.60
2022-09-29T08:15:42.224Z,35.60
2022-09-29T08:17:43.973Z,35.80
2022-09-29T08:19:46.033Z,36.00
2022-09-29T08:21:49.773Z,36.10
2022-09-29T08:23:55.976Z,36.40
2022-09-29T08:26:19.700Z,36.80
2022-09-29T08:28:30.467Z,37.30
2022-09-29T08:30:36.013Z,37.40
2022-09-29T08:32:38.722Z,37.20
2022-09-29T08:34:40.334Z,37.20
2022-09-29T08:36:42.192Z,37.00
2022-09-29T08:38:48.901Z,37.00
2022-09-29T08:40:54.430Z,36.90
2022-09-29T08:43:28.528Z,36.80
2022-09-29T08:46:01.380Z,36.90
2022-09-29T08:48:20.775Z,36.40
2022-09-29T08:50:42.566Z,35.80
2022-09-29T08:52:53.310Z,35.20
2022-09-29T08:55:19.229Z,35.30
2022-09-29T08:57:23.030Z,35.40
2022-09-29T08:59:27.466Z,35.00
2022-09-29T09:01:58.459Z,35.00
2022-09-29T09:04:15.726Z,35.10
2022-09-29T09:06:30.339Z,34.90
2022-09-29T09:08:42.243Z,34.80
2022-09-29T09:10:48.660Z,34.70
2022-09-29T09:13:07.342Z,34.60
2022-09-29T09:15:27.957Z,34.50
2022-09-29T09:18:03.404Z,34.40
2022-09-29T09:20:34.298Z,33.90
2022-09-29T09:22:55.730Z,34.10
2022-09-29T09:25:26.511Z,34.20
2022-09-29T09:27:39.557Z,33.20
2022-09-29T09:29:47.709Z,33.80
2022-09-29T09:32:00.222Z,33.60
2022-09-29T09:34:11.956Z,33.30
2022-09-29T09:36:33.664Z,33.30
2022-09-29T09:38:57.929Z,32.60
2022-09-29T09:41:02.027Z,32.00
2022-09-29T09:43:14.419Z,31.60
2022-09-29T09:45:34.462Z,31.10
2022-09-29T09:47:42.976Z,30.20
2022-09-29T09:49:50.840Z,30.00
2022-09-29T09:54:35.974Z,29.70
2022-09-29T09:56:50.656Z,28.80
2022-09-29T09:59:03.671Z,29.00
2022-09-29T10:01:08.870Z,28.70
2022-09-29T10:03:12.090Z,28.60
2022-09-29T10:05:16.511Z,28.70
2022-09-29T10:07:20.253Z,28.30
2022-09-29T10:09:23.560Z,28.20
2022-09-29T10:11:35.639Z,27.90
2022-09-29T10:13:37.349Z,27.60
2022-09-29T10:15:47.105Z,27.70
2022-09-29T10:18:15.009Z,27.90
2022-09-29T10:20:31.699Z,27.60
2022-09-29T10:22:34.486Z,27.80
2022-09-29T10:24:36.165Z,28.00
2022-09-29T10:26:42.670Z,28.00
2022-09-29T10:29:18.191Z,27.60
2022-09-29T10:31:27.793Z,26.60
2022-09-29T10:33:32.013Z,25.90
2022-09-29T10:35:37.387Z,25.60
2022-09-29T10:37:42.760Z,25.30
2022-09-29T10:39:50.844Z,25.40
2022-09-29T10:41:55.696Z,25.80
2022-09-29T10:44:23.356Z,25.60
2022-09-29T10:46:37.911Z,26.20
2022-09-29T10:48:39.585Z,26.60
2022-09-29T10:50:58.714Z,25.40
2022-09-29T10:53:04.349Z,25.40
2022-09-29T10:55:06.434Z,25.10
2022-09-29T10:57:15.644Z,24.80
2022-09-29T10:59:18.024Z,24.90
2022-09-29T11:01:23.157Z,24.40
2022-09-29T11:03:27.573Z,23.80
2022-09-29T11:05:29.199Z,23.20
2022-09-29T11:07:32.416Z,23.10
2022-09-29T11:09:43.091Z,23.10
2022-09-29T11:11:47.876Z,22.60
2022-09-29T11:13:49.974Z,22.20
2022-09-29T11:15:52.635Z,22.00
2022-09-29T11:17:56.311Z,21.80
2022-09-29T11:20:04.415Z,21.60
2022-09-29T11:22:14.267Z,21.60
2022-09-29T11:24:24.825Z,22.00
2022-09-29T11:27:05.533Z,21.70
2022-09-29T11:29:34.316Z,21.30
2022-09-29T11:32:05.091Z,21.30
2022-09-29T11:34:39.544Z,21.70
2022-09-29T11:37:15.134Z,21.90
2022-09-29T11:39:36.019Z,20.60
2022-09-29T11:41:52.254Z,20.10
2022-09-29T11:44:15.948Z,19.70
2022-09-29T11:46:45.181Z,19.20
2022-09-29T11:49:00.896Z,19.30
2022-09-29T11:51:30.043Z,19.10
2022-09-29T11:53:46.924Z,19.10
2022-09-29T11:56:09.747Z,19.10
2022-09-29T11:58:48.305Z,18.80
2022-09-29T12:01:20.410Z,19.00
2022-09-29T12:03:50.237Z,17.90
2022-09-29T12:06:10.894Z,18.20
2022-09-29T12:08:32.590Z,18.40
2022-09-29T12:10:55.986Z,17.90
2022-09-29T12:13:15.493Z,18.30
2022-09-29T12:15:17.120Z,16.90
2022-09-29T12:17:25.646Z,16.80
2022-09-29T12:19:32.083Z,17.40
2022-09-29T12:21:42.424Z,17.30
2022-09-29T12:23:45.887Z,18.10
2022-09-29T12:26:04.752Z,18.00
2022-09-29T12:28:13.734Z,17.20
2022-09-29T12:30:21.116Z,17.10
2022-09-29T12:32:36.270Z,17.00
2022-09-29T12:34:48.371Z,16.50
2022-09-29T12:37:10.647Z,16.50
2022-09-29T12:39:49.690Z,16.50
2022-09-29T12:42:18.117Z,16.90
2022-09-29T12:44:31.510Z,17.10
2022-09-29T12:46:42.347Z,17.30
2022-09-29T12:49:10.479Z,17.10
2022-09-29T12:51:38.390Z,16.40
2022-09-29T12:54:08.062Z,16.40
2022-09-29T12:56:32.074Z,15.60
2022-09-29T12:58:47.122Z,15.50
2022-09-29T13:00:58.558Z,15.80
2022-09-29T13:03:25.657Z,16.10
2022-09-29T13:06:04.289Z,16.10
2022-09-29T13:08:30.921Z,16.00
2022-09-29T13:10:44.604Z,15.90
2022-09-29T13:12:52.718Z,15.80
2022-09-29T13:15:12.915Z,16.10
2022-09-29T13:17:50.790Z,16.20
2022-09-29T13:20:27.929Z,16.50
2022-09-29T13:22:53.865Z,16.50
2022-09-29T13:25:18.304Z,16.70
2022-09-29T13:27:30.638Z,17.00
2022-09-29T13:29:34.868Z,17.70
2022-09-29T13:31:39.683Z,17.10
2022-09-29T13:33:46.422Z,16.90
2022-09-29T13:35:49.835Z,17.10
2022-09-29T13:37:56.261Z,17.30
2022-09-29T13:40:05.490Z,17.20
2022-09-29T13:42:34.154Z,17.60
2022-09-29T13:44:35.842Z,17.50
2022-09-29T13:46:40.205Z,17.50
2022-09-29T13:48:49.854Z,17.70
2022-09-29T13:50:55.519Z,17.60
2022-09-29T13:53:22.868Z,17.70
2022-09-29T13:55:56.780Z,17.40
2022-09-29T13:58:02.192Z,18.00
2022-09-29T14:00:18.373Z,18.10
2022-09-29T14:02:49.067Z,17.80
2022-09-29T14:04:52.765Z,18.00
2022-09-29T14:06:58.668Z,17.70
2022-09-29T14:09:15.012Z,18.10
2022-09-29T14:11:32.139Z,17.80
2022-09-29T14:13:57.566Z,17.90
2022-09-29T14:16:10.486Z,18.10
2022-09-29T14:18:38.315Z,18.40
2022-09-29T14:21:05.000Z,18.50
2022-09-29T14:23:08.458Z,18.20
2022-09-29T14:25:15.181Z,18.90
2022-09-29T14:27:39.641Z,18.70
2022-09-29T14:30:11.465Z,18.70
2022-09-29T14:32:27.465Z,18.70
2022-09-29T14:34:35.938Z,18.50
2022-09-29T14:36:41.743Z,18.60
2022-09-29T14:39:25.938Z,18.10
2022-09-29T14:41:39.883Z,17.90
2022-09-29T14:43:52.312Z,18.20
2022-09-29T14:46:34.798Z,18.10
2022-09-29T14:49:16.053Z,17.50
2022-09-29T14:51:59.505Z,16.60
2022-09-29T14:54:33.191Z,16.70
2022-09-29T14:56:51.919Z,16.70
2022-09-29T14:59:00.039Z,16.10
2022-09-29T15:01:23.911Z,15.60
2022-09-29T15:03:36.812Z,15.90
2022-09-29T15:05:38.622Z,16.30
2022-09-29T15:07:42.533Z,16.20
2022-09-29T15:09:51.496Z,16.10
2022-09-29T15:11:56.519Z,16.60
2022-09-29T15:13:59.426Z,16.90
2022-09-29T15:16:21.516Z,17.30
2022-09-29T15:18:40.486Z,17.90
2022-09-29T15:20:52.497Z,18.40
2022-09-29T15:23:38.530Z,18.70
2022-09-29T15:25:44.978Z,19.00
2022-09-29T15:27:52.080Z,19.20
2022-09-29T15:29:58.260Z,19.50
2022-09-29T15:32:02.637Z,19.60
2022-09-29T15:34:04.846Z,19.90
2022-09-29T15:36:15.555Z,20.20
2022-09-29T15:38:25.373Z,20.40
2022-09-29T15:40:34.365Z,20.50
2022-09-29T15:42:38.391Z,20.50
2022-09-29T15:44:48.324Z,20.70
2022-09-29T15:46:57.372Z,20.70
2022-09-29T15:49:21.130Z,20.70
2022-09-29T15:51:25.779Z,20.70
2022-09-29T15:53:28.150Z,20.90
2022-09-29T15:55:33.153Z,20.90
2022-09-29T15:57:51.128Z,21.00
2022-09-29T15:59:54.900Z,21.40
2022-09-29T16:02:05.741Z,21.40
2022-09-29T16:04:11.308Z,21.50
2022-09-29T16:06:28.568Z,21.50
2022-09-29T16:08:34.213Z,21.90
2022-09-29T16:10:49.534Z,21.80
2022-09-29T16:13:00.631Z,22.10
2022-09-29T16:15:02.437Z,22.00
2022-09-29T16:17:08.215Z,21.90
2022-09-29T16:19:24.279Z,21.90
2022-09-29T16:21:35.068Z,22.30
2022-09-29T16:23:44.067Z,22.40
2022-09-29T16:25:45.999Z,22.50
2022-09-29T16:27:59.099Z,22.40
2022-09-29T16:30:38.640Z,22.50
2022-09-29T16:32:43.226Z,22.70
2022-09-29T16:34:47.311Z,22.50
2022-09-29T16:36:49.809Z,22.60
2022-09-29T16:38:54.578Z,22.70
2022-09-29T16:40:56.906Z,23.00
2022-09-29T16:42:58.988Z,23.00
2022-09-29T16:45:01.135Z,23.00
2022-09-29T16:47:19.430Z,22.90
2022-09-29T16:49:35.321Z,22.90
2022-09-29T16:51:44.685Z,22.90
2022-09-29T16:53:47.353Z,22.90
2022-09-29T16:56:08.089Z,22.90
2022-09-29T16:58:14.915Z,23.30
2022-09-29T17:00:20.887Z,22.90
2022-09-29T17:02:23.922Z,23.10
2022-09-29T17:04:25.613Z,23.10
2022-09-29T17:06:27.776Z,23.20
2022-09-29T17:08:36.001Z,23.30
2022-09-29T17:10:37.766Z,23.60
2022-09-29T17:12:40.125Z,23.50
2022-09-29T17:14:42.266Z,23.50
2022-09-29T17:16:46.941Z,23.70
2022-09-29T17:18:50.640Z,23.80
2022-09-29T17:20:52.752Z,24.00
2022-09-29T17:22:54.489Z,23.90
2022-09-29T17:24:59.414Z,24.00
2022-09-29T17:27:19.542Z,24.20
2022-09-29T17:29:21.198Z,24.10
2022-09-29T17:31:23.123Z,24.10
2022-09-29T17:33:24.854Z,24.20
2022-09-29T17:35:34.270Z,24.30
2022-09-29T17:37:37.920Z,24.50
2022-09-29T17:39:39.546Z,24.50
2022-09-29T17:41:45.697Z,24.40
2022-09-29T17:43:47.772Z,24.60
2022-09-29T17:45:57.075Z,24.50
2022-09-29T17:47:59.244Z,24.60
2022-09-29T17:50:26.345Z,24.80
2022-09-29T17:52:32.006Z,25.40
2022-09-29T17:54:35.239Z,24.90
2022-09-29T17:56:41.657Z,24.70
2022-09-29T17:58:43.376Z,25.00
2022-09-29T18:00:49.037Z,24.90
2022-09-29T18:02:51.551Z,25.00
2022-09-29T18:04:54.239Z,24.90
2022-09-29T18:06:55.946Z,24.80
2022-09-29T18:09:02.941Z,25.00
2022-09-29T18:11:04.701Z,25.00
2022-09-29T18:13:07.648Z,25.00
2022-09-29T18:15:10.306Z,25.10
2022-09-29T18:17:11.976Z,25.10
2022-09-29T18:19:17.211Z,25.10
2022-09-29T18:21:21.787Z,25.10
2022-09-29T18:23:24.014Z,25.10
2022-09-29T18:25:26.850Z,25.10
2022-09-29T18:27:30.253Z,25.10
2022-09-29T18:29:32.007Z,25.10
2022-09-29T18:31:34.372Z,25.10
2022-09-29T18:33:38.605Z,25.10
2022-09-29T18:35:42.227Z,25.10
2022-09-29T18:37:44.014Z,25.10
2022-09-29T18:39:46.870Z,25.20
2022-09-29T18:41:48.562Z,25.20
2022-09-29T18:43:54.135Z,25.30
2022-09-29T18:46:02.197Z,25.40
2022-09-29T18:48:08.855Z,25.50
2022-09-29T18:50:20.370Z,25.60
2022-09-29T18:52:22.077Z,25.60
2022-09-29T18:54:23.707Z,25.40
2022-09-29T18:56:25.334Z,25.50
2022-09-29T18:58:27.012Z,25.40
2022-09-29T19:00:39.074Z,25.40
2022-09-29T19:02:42.092Z,25.10
2022-09-29T19:04:43.816Z,25.30
2022-09-29T19:06:45.448Z,25.20
2022-09-29T19:08:50.187Z,25.20
2022-09-29T19:11:00.610Z,25.30
2022-09-29T19:13:08.034Z,25.40
2022-09-29T19:15:09.789Z,25.40
2022-09-29T19:17:12.022Z,25.20
2022-09-29T19:19:13.729Z,25.80
2022-09-29T19:21:15.819Z,25.30
2022-09-29T19:23:19.527Z,25.20
2022-09-29T19:25:28.883Z,25.20
2022-09-29T19:27:33.607Z,25.50
2022-09-29T19:29:35.219Z,25.50
2022-09-29T19:31:37.710Z,25.40
2022-09-29T19:33:41.191Z,25.40
2022-09-29T19:35:52.903Z,25.50
2022-09-29T19:37:55.753Z,25.70
2022-09-29T19:39:57.549Z,25.60
2022-09-29T19:42:01.816Z,25.60
2022-09-29T19:44:03.447Z,25.60
2022-09-29T19:46:10.651Z,25.60
2022-09-29T19:48:17.884Z,25.70
2022-09-29T19:50:52.971Z,25.80
2022-09-29T19:52:57.294Z,25.80
2022-09-29T19:54:59.305Z,25.60
2022-09-29T19:57:06.090Z,25.80
2022-09-29T19:59:10.462Z,26.00
2022-09-29T20:01:12.697Z,26.50
2022-09-29T20:03:14.711Z,25.90
2022-09-29T20:05:16.698Z,26.00
2022-09-29T20:07:18.526Z,26.00
2022-09-29T20:09:23.052Z,25.90
2022-09-29T20:11:24.754Z,26.00
2022-09-29T20:13:30.985Z,26.10
2022-09-29T20:15:32.649Z,26.30
2022-09-29T20:17:37.218Z,26.40
2022-09-29T20:19:41.241Z,26.40
2022-09-29T20:21:50.269Z,26.30
2022-09-29T20:23:52.130Z,26.60
2022-09-29T20:26:02.947Z,26.50
2022-09-29T20:28:07.494Z,26.50
2022-09-29T20:30:11.250Z,26.30
2022-09-29T20:32:12.861Z,26.30
2022-09-29T20:34:19.725Z,26.20
2022-09-29T20:36:21.359Z,26.20
2022-09-29T20:38:23.035Z,26.30
2022-09-29T20:40:24.698Z,26.30
2022-09-29T20:42:28.552Z,26.40
2022-09-29T20:44:30.330Z,26.30
2022-09-29T20:46:32.096Z,26.10
2022-09-29T20:48:35.523Z,26.10
2022-09-29T20:50:37.779Z,26.00
2022-09-29T20:52:39.421Z,26.10
2022-09-29T20:54:41.727Z,26.10
2022-09-29T20:56:43.689Z,26.20
2022-09-29T20:58:47.677Z,26.40
2022-09-29T21:00:54.129Z,26.40
2022-09-29T21:02:55.922Z,26.40
2022-09-29T21:04:59.873Z,26.50
2022-09-29T21:07:02.716Z,26.60
2022-09-29T21:09:06.892Z,26.70
2022-09-29T21:11:11.299Z,26.90
2022-09-29T21:13:16.241Z,27.20
2022-09-29T21:15:17.865Z,27.20
2022-09-29T21:17:19.494Z,27.30
2022-09-29T21:19:25.718Z,27.30
2022-09-29T21:21:27.402Z,27.50
2022-09-29T21:23:32.214Z,27.50
2022-09-29T21:25:33.894Z,27.70
2022-09-29T21:27:39.675Z,27.70
2022-09-29T21:29:43.481Z,27.60
2022-09-29T21:31:46.026Z,27.80
2022-09-29T21:33:54.335Z,28.00
2022-09-29T21:35:58.344Z,28.30
2022-09-29T21:37:59.973Z,28.30
2022-09-29T21:40:01.786Z,28.90
2022-09-29T21:42:04.231Z,28.50
2022-09-29T21:44:11.361Z,28.30
2022-09-29T21:46:20.467Z,28.60
2022-09-29T21:48:22.089Z,28.60
2022-09-29T21:50:25.981Z,28.30
2022-09-29T21:52:27.893Z,28.30
2022-09-29T21:54:30.196Z,28.50
2022-09-29T21:56:35.271Z,28.50
2022-09-29T21:58:37.400Z,28.50
2022-09-29T22:00:39.290Z,28.50
2022-09-29T22:02:41.018Z,28.40
2022-09-29T22:04:42.822Z,28.40
2022-09-29T22:06:47.819Z,28.50
2022-09-29T22:08:50.458Z,28.70
2022-09-29T22:10:53.726Z,28.80
2022-09-29T22:12:55.383Z,28.90
2022-09-29T22:14:57.045Z,29.00
2022-09-29T22:16:58.652Z,29.10
2022-09-29T22:19:22.586Z,29.40
2022-09-29T22:21:26.524Z,29.50
2022-09-29T22:23:29.289Z,29.80
2022-09-29T22:25:33.198Z,30.00
2022-09-29T22:27:34.957Z,30.00
2022-09-29T22:29:38.770Z,30.10
2022-09-29T22:31:40.856Z,30.00
2022-09-29T22:33:44.006Z,30.20
2022-09-29T22:35:53.298Z,30.30
2022-09-29T22:37:55.027Z,30.20
2022-09-29T22:39:56.635Z,30.10
2022-09-29T22:42:02.396Z,30.20
2022-09-29T22:44:04.360Z,30.10
2022-09-29T22:46:09.798Z,30.20
2022-09-29T22:48:13.666Z,30.30
2022-09-29T22:50:15.531Z,30.10
2022-09-29T22:52:17.490Z,30.10
2022-09-29T22:54:19.841Z,30.00
2022-09-29T22:56:28.110Z,30.00
2022-09-29T22:58:29.870Z,29.90
2022-09-29T23:00:33.617Z,29.70
2022-09-29T23:02:36.230Z,29.50
2022-09-29T23:04:37.850Z,29.20
2022-09-29T23:06:39.717Z,29.10
2022-09-29T23:08:43.166Z,29.00
2022-09-29T23:10:48.085Z,28.80
2022-09-29T23:12:57.050Z,29.00
2022-09-29T23:15:00.729Z,29.00
2022-09-29T23:17:02.349Z,29.10
2022-09-29T23:19:04.396Z,29.30
2022-09-29T23:21:06.780Z,29.40
2022-09-29T23:23:09.381Z,29.50
2022-09-29T23:25:11.112Z,29.50
2022-09-29T23:27:12.722Z,29.50
2022-09-29T23:29:14.711Z,29.70
2022-09-29T23:31:16.463Z,29.80
2022-09-29T23:33:18.471Z,29.90
2022-09-29T23:35:22.277Z,30.00
2022-09-29T23:37:43.954Z,30.00
2022-09-29T23:39:45.616Z,29.90
2022-09-29T23:41:50.288Z,29.80
2022-09-29T23:43:51.972Z,29.80
2022-09-29T23:45:55.801Z,29.80
2022-09-29T23:47:57.407Z,29.80
2022-09-29T23:50:05.277Z,29.90
2022-09-29T23:52:06.989Z,29.80
2022-09-29T23:54:09.976Z,29.80
2022-09-29T23:56:13.869Z,29.70
2022-09-29T23:58:15.483Z,29.70
